Time;durP1;ratioP1;P1;durP2;ratioP2;P2;SDS_P1;SDS_P2;PMS_P1;PMS_P2;Temp;Humidity;BMP_temperature;BMP_pressure;BME280_temperature;BME280_humidity;BME280_pressure;Samples;Min_cycle;Max_cycle;Signal;HPM_P1;HPM_P2
2022/12/09 00:00:56;;;;;;;;;29.00;23.00;;;;;5.08;75.57;100448.84;5018530;28;45502;-79
2022/12/09 00:03:21;;;;;;;;;28.50;21.50;;;;;5.10;75.65;100441.09;5018640;28;45391;-79
2022/12/09 00:05:47;;;;;;;;;34.75;18.25;;;;;5.09;75.49;100447.13;5036025;28;56614;-80
2022/12/09 00:08:12;;;;;;;;;25.75;20.00;;;;;5.07;75.24;100444.59;5036322;28;46363;-79
2022/12/09 00:10:37;;;;;;;;;42.50;27.00;;;;;5.07;75.41;100441.13;5035926;28;45386;-79
2022/12/09 00:13:03;;;;;;;;;39.50;20.75;;;;;5.07;75.53;100439.44;5018678;28;45433;-79
2022/12/09 00:15:28;;;;;;;;;38.00;22.75;;;;;5.04;75.32;100431.72;5035109;28;64413;-79
2022/12/09 00:17:53;;;;;;;;;28.25;23.00;;;;;5.03;75.57;100428.28;5018250;28;47253;-79
2022/12/09 00:20:19;;;;;;;;;32.50;23.25;;;;;4.99;75.13;100433.47;5034162;28;67162;-79
2022/12/09 00:22:44;;;;;;;;;30.25;19.50;;;;;4.99;75.53;100431.75;5035550;28;59486;-79
2022/12/09 00:25:09;;;;;;;;;31.50;23.25;;;;;5.01;75.66;100427.44;5035652;28;57926;-79
2022/12/09 00:27:35;;;;;;;;;29.25;21.00;;;;;5.04;75.73;100426.56;5017483;28;65665;-79
2022/12/09 00:30:00;;;;;;;;;33.50;18.25;;;;;5.04;75.35;100429.97;5034968;28;62449;-79
2022/12/09 00:32:25;;;;;;;;;34.50;17.75;;;;;5.04;75.20;100426.56;5017742;28;61271;-79
2022/12/09 00:34:51;;;;;;;;;31.50;21.75;;;;;5.05;75.43;100425.66;5017616;28;57240;-79
2022/12/09 00:37:16;;;;;;;;;31.75;22.25;;;;;5.06;75.45;100421.38;5035158;28;65010;-79
2022/12/09 00:39:41;;;;;;;;;26.75;21.50;;;;;5.04;75.90;100424.81;5035526;28;45441;-79
2022/12/09 00:42:07;;;;;;;;;29.75;20.75;;;;;5.06;75.57;100411.91;5035274;28;59315;-79
2022/12/09 00:44:32;;;;;;;;;29.75;20.25;;;;;5.07;75.29;100417.91;5017683;28;45421;-79
2022/12/09 00:46:57;;;;;;;;;24.00;20.00;;;;;5.02;75.22;100417.97;5035225;28;62674;-79
2022/12/09 00:49:23;;;;;;;;;33.25;20.00;;;;;4.96;74.96;100415.44;5035089;28;62601;-79
2022/12/09 00:51:48;;;;;;;;;29.50;20.25;;;;;4.93;75.30;100412.91;5035861;28;45317;-79
2022/12/09 00:54:13;;;;;;;;;31.25;20.75;;;;;4.90;75.38;100407.78;5034938;28;63586;-79
2022/12/09 00:56:39;;;;;;;;;28.50;20.25;;;;;4.88;75.36;100410.38;5035722;28;46108;-79
2022/12/09 00:59:04;;;;;;;;;25.50;22.00;;;;;4.92;75.35;100406.91;5016664;28;65855;-79
2022/12/09 01:01:30;;;;;;;;;25.75;17.00;;;;;4.93;75.30;100402.59;5035021;28;57539;-79
2022/12/09 01:03:56;;;;;;;;;24.50;17.50;;;;;4.91;75.70;100400.03;5035738;28;45487;-79
2022/12/09 01:06:24;;;;;;;;;28.00;19.25;;;;;4.93;75.52;100400.88;5035419;28;47309;-79
2022/12/09 01:08:49;;;;;;;;;29.33;18.67;;;;;4.94;75.62;100392.28;5035445;28;45470;-79
2022/12/09 01:11:24;;;;;;;;;24.25;18.25;;;;;4.95;75.71;100403.44;5035569;28;45316;-79
2022/12/09 01:13:50;;;;;;;;;23.00;17.75;;;;;4.95;75.69;100396.53;5017461;28;45382;-79
2022/12/09 01:16:21;;;;;;;;;24.25;17.25;;;;;4.96;75.83;100400.84;5017675;28;46691;-79
2022/12/09 01:18:48;;;;;;;;;27.50;19.75;;;;;4.98;75.74;100399.09;5017621;28;45825;-79
2022/12/09 01:21:13;;;;;;;;;25.50;17.00;;;;;4.99;75.55;100397.38;5017725;28;45467;-79
2022/12/09 01:23:38;;;;;;;;;28.00;20.50;;;;;4.98;75.20;100401.69;5035526;28;45401;-79
2022/12/09 01:26:05;;;;;;;;;29.75;20.00;;;;;4.94;75.07;100397.44;5017497;28;45535;-79
2022/12/09 01:28:32;;;;;;;;;28.25;21.25;;;;;4.91;75.29;100388.88;5016949;28;45375;-80
2022/12/09 01:31:06;;;;;;;;;25.75;18.50;;;;;4.90;75.20;100390.56;5035469;28;45289;-79
2022/12/09 01:33:32;;;;;;;;;29.50;21.75;;;;;4.88;75.11;100389.75;5017552;28;45490;-79
2022/12/09 01:35:57;;;;;;;;;29.50;21.50;;;;;4.85;74.99;100393.22;5035132;28;46488;-79
2022/12/09 01:38:22;;;;;;;;;20.25;16.75;;;;;4.84;75.19;100398.38;5034826;28;57442;-79
2022/12/09 01:40:48;;;;;;;;;29.50;18.50;;;;;4.82;75.22;100392.41;5034411;28;62485;-79
2022/12/09 01:43:17;;;;;;;;;25.00;18.25;;;;;4.80;75.29;100394.13;5034572;28;53813;-79
2022/12/09 01:45:42;;;;;;;;;30.50;21.00;;;;;4.77;75.23;100395.03;5017190;28;48292;-79
2022/12/09 01:48:13;;;;;;;;;30.25;18.75;;;;;4.76;75.51;100398.47;5017106;28;45417;-79
2022/12/09 01:50:52;;;;;;;;;22.00;15.00;;;;;4.76;75.09;100398.47;5035103;28;45222;-79
2022/12/09 01:53:21;;;;;;;;;26.50;17.75;;;;;4.76;75.07;100401.06;5038586;28;45314;-79
2022/12/09 01:55:47;;;;;;;;;26.00;20.00;;;;;4.73;74.87;100395.91;5020515;28;45577;-80
2022/12/09 01:58:13;;;;;;;;;20.75;15.00;;;;;4.72;74.77;100404.53;5037266;28;67797;-79
2022/12/09 02:00:39;;;;;;;;;19.75;14.00;;;;;4.71;75.08;100397.66;5020853;28;45295;-79
2022/12/09 02:03:05;;;;;;;;;23.50;17.00;;;;;4.70;74.83;100400.25;5020552;28;45520;-79
2022/12/09 02:05:31;;;;;;;;;23.00;17.25;;;;;4.65;75.00;100396.00;5020362;28;47499;-79
2022/12/09 02:07:56;;;;;;;;;23.50;16.50;;;;;4.65;75.32;100395.16;5038281;28;45400;-79
2022/12/09 02:10:22;;;;;;;;;28.00;19.00;;;;;4.68;75.14;100397.72;5038001;28;50087;-79
2022/12/09 02:13:37;;;;;;;;;25.50;18.75;;;;;4.66;74.94;100391.69;5019708;28;54182;-79
2022/12/09 02:16:08;;;;;;;;;20.75;16.25;;;;;4.64;75.03;100388.28;5020618;28;45499;-79
2022/12/09 02:18:45;;;;;;;;;29.75;20.25;;;;;4.62;75.25;100383.16;5020427;28;45367;-79
2022/12/09 02:21:16;;;;;;;;;27.50;17.00;;;;;4.61;75.51;100391.75;5038103;28;45356;-79
2022/12/09 02:23:49;;;;;;;;;15.50;13.50;;;;;4.63;75.46;100376.28;5020406;28;45493;-79
2022/12/09 02:26:26;;;;;;;;;22.50;16.50;;;;;4.65;75.31;100377.94;5019978;28;45427;-79
2022/12/09 02:29:10;;;;;;;;;25.25;17.00;;;;;4.63;75.35;100384.00;5020190;28;45350;-79
2022/12/09 02:31:47;;;;;;;;;24.75;15.25;;;;;4.63;75.38;100381.44;5038149;28;45355;-79
2022/12/09 02:34:25;;;;;;;;;23.50;15.75;;;;;4.60;75.29;100374.56;5020128;28;45489;-79
2022/12/09 02:36:56;;;;;;;;;23.50;16.50;;;;;4.59;75.18;100380.59;5019946;28;47222;-79
2022/12/09 02:39:25;;;;;;;;;25.75;16.50;;;;;4.57;75.13;100384.03;5019988;28;45818;-79
2022/12/09 02:41:51;;;;;;;;;33.25;16.00;;;;;4.54;75.01;100374.63;5019580;28;45338;-79
2022/12/09 02:44:19;;;;;;;;;21.75;16.25;;;;;4.53;75.02;100375.53;5019215;28;64806;-79
2022/12/09 02:46:44;;;;;;;;;26.00;16.25;;;;;4.50;75.53;100383.28;5019691;28;47448;-80
2022/12/09 02:49:11;;;;;;;;;27.00;20.00;;;;;4.49;75.01;100373.81;5037034;28;61987;-79
2022/12/09 02:51:40;;;;;;;;;27.00;16.00;;;;;4.46;75.18;100376.44;5020085;28;45415;-79
2022/12/09 02:54:12;;;;;;;;;20.75;18.50;;;;;4.43;75.44;100377.31;5020043;28;45536;-79
2022/12/09 02:56:40;;;;;;;;;20.25;15.75;;;;;4.43;74.85;100368.72;5019757;28;45583;-79
2022/12/09 02:59:05;;;;;;;;;35.75;18.25;;;;;4.39;74.73;100374.78;5019575;28;46031;-79
2022/12/09 03:01:41;;;;;;;;;23.50;17.25;;;;;4.31;74.92;100369.72;5036390;28;65954;-79
2022/12/09 03:04:07;;;;;;;;;23.25;18.00;;;;;4.25;74.98;100367.16;5019715;28;45457;-79
2022/12/09 03:06:47;;;;;;;;;20.00;12.50;;;;;4.14;74.94;100368.97;5018692;28;68622;-79
2022/12/09 03:09:23;;;;;;;;;21.00;13.25;;;;;4.10;75.29;100377.59;5019105;28;45735;-79
2022/12/09 03:11:49;;;;;;;;;16.75;10.50;;;;;4.06;75.33;100367.31;5019543;28;45397;-79
2022/12/09 03:14:20;;;;;;;;;23.50;16.75;;;;;4.02;75.05;100368.22;5019223;28;51830;-79
2022/12/09 03:17:07;;;;;;;;;23.75;14.25;;;;;3.97;75.50;100371.69;5019346;28;47398;-79
2022/12/09 03:19:54;;;;;;;;;13.00;13.00;;;;;3.94;75.56;100369.13;5019569;28;45906;-79
2022/12/09 03:22:23;;;;;;;;;17.75;14.75;;;;;3.92;75.84;100366.59;5019589;28;45310;-79
2022/12/09 03:25:04;;;;;;;;;12.25;11.75;;;;;3.94;75.67;100366.56;5019045;28;45509;-79
2022/12/09 03:27:34;;;;;;;;;24.00;13.50;;;;;3.94;76.21;100351.09;5037009;28;46351;-79
2022/12/09 03:30:01;;;;;;;;;19.25;10.50;;;;;3.97;75.76;100354.53;5019079;28;45456;-79
2022/12/09 03:32:27;;;;;;;;;16.25;10.25;;;;;4.01;75.81;100348.50;5002073;28;61118;-79
2022/12/09 03:34:57;;;;;;;;;15.50;11.50;;;;;4.00;75.46;100351.09;5001763;28;66108;-79
2022/12/09 03:37:22;;;;;;;;;12.25;8.25;;;;;3.97;75.61;100349.38;5019191;28;45977;-79
2022/12/09 03:39:48;;;;;;;;;15.25;13.50;;;;;3.97;75.86;100351.09;5018029;28;62244;-79
2022/12/09 03:42:23;;;;;;;;;17.50;10.75;;;;;3.98;75.46;100340.78;5019203;28;45541;-79
2022/12/09 03:44:52;;;;;;;;;12.50;8.50;;;;;3.98;75.68;100348.50;5018983;28;45484;-79
2022/12/09 03:47:17;;;;;;;;;15.50;12.50;;;;;3.95;75.41;100340.81;5018829;28;47375;-79
2022/12/09 03:49:43;;;;;;;;;20.75;13.00;;;;;3.93;75.37;100342.53;5036157;28;61597;-79
2022/12/09 03:52:27;;;;;;;;;14.50;10.50;;;;;3.90;75.39;100347.72;5018184;28;54693;-78
2022/12/09 03:54:57;;;;;;;;;23.50;13.00;;;;;3.90;75.59;100345.16;5036530;28;45465;-79
2022/12/09 03:57:23;;;;;;;;;14.75;11.50;;;;;3.87;75.22;100347.75;5018662;28;46303;-79
2022/12/09 04:00:07;;;;;;;;;13.75;10.00;;;;;3.86;75.47;100343.44;5018699;28;45384;-79
2022/12/09 04:02:33;;;;;;;;;16.75;8.25;;;;;3.85;75.60;100342.59;5036445;28;45380;-79
2022/12/09 04:04:59;;;;;;;;;11.50;9.75;;;;;3.85;75.27;100336.59;5018151;28;54012;-79
2022/12/09 04:07:24;;;;;;;;;10.50;7.75;;;;;3.84;75.40;100333.16;5035285;28;68187;-79
2022/12/09 04:09:49;;;;;;;;;16.50;8.25;;;;;3.84;75.34;100338.31;5017632;28;68735;-79
2022/12/09 04:12:15;;;;;;;;;11.25;9.25;;;;;3.82;75.46;100334.88;5036015;28;52865;-79
2022/12/09 04:14:40;;;;;;;;;12.25;7.00;;;;;3.78;74.74;100328.06;5016853;28;62835;-79
2022/12/09 04:17:05;;;;;;;;;10.50;10.00;;;;;3.76;75.19;100327.22;5018371;28;48085;-78
2022/12/09 04:19:31;;;;;;;;;11.50;9.00;;;;;3.76;75.29;100326.38;5035623;28;63645;-79
2022/12/09 04:21:56;;;;;;;;;9.00;7.75;;;;;3.74;75.23;100328.97;5017494;28;60385;-79
2022/12/09 04:24:21;;;;;;;;;10.00;10.00;;;;;3.73;75.31;100324.66;5035551;28;62090;-79
2022/12/09 04:26:47;;;;;;;;;19.00;10.25;;;;;3.74;75.05;100330.69;5036039;28;45412;-79
2022/12/09 04:29:12;;;;;;;;;13.00;8.50;;;;;3.73;75.42;100323.81;5017637;28;63386;-79
2022/12/09 04:31:38;;;;;;;;;14.75;8.50;;;;;3.75;75.44;100317.81;5036151;28;45302;-79
2022/12/09 04:34:03;;;;;;;;;15.25;9.00;;;;;3.78;75.78;100317.75;5035930;28;48479;-79
2022/12/09 04:36:29;;;;;;;;;14.50;11.00;;;;;3.81;75.66;100324.63;5017621;28;47389;-80
2022/12/09 04:38:54;;;;;;;;;13.25;11.25;;;;;3.82;75.08;100321.16;5036061;28;45237;-79
2022/12/09 04:41:19;;;;;;;;;11.75;10.25;;;;;3.79;75.18;100328.91;5035070;28;65487;-79
2022/12/09 04:43:45;;;;;;;;;12.25;8.50;;;;;3.77;75.14;100328.94;5035370;28;61425;-79
2022/12/09 04:46:12;;;;;;;;;13.00;10.25;;;;;3.74;74.98;100323.81;5018045;28;45531;-80
2022/12/09 04:48:38;;;;;;;;;16.75;11.00;;;;;3.72;75.17;100335.00;5035743;28;45564;-80
2022/12/09 04:51:03;;;;;;;;;11.00;11.00;;;;;3.72;75.30;100327.28;5035052;28;57623;-79
2022/12/09 04:53:29;;;;;;;;;13.00;10.75;;;;;3.72;75.06;100337.56;5017595;28;45652;-79
2022/12/09 04:56:03;;;;;;;;;14.50;8.25;;;;;3.71;74.81;100334.13;5035516;28;52143;-79
2022/12/09 04:58:29;;;;;;;;;13.75;9.25;;;;;3.64;74.62;100329.88;5035751;28;45421;-79
2022/12/09 05:00:55;;;;;;;;;19.75;10.00;;;;;3.62;74.66;100329.03;5017973;28;45488;-79
2022/12/09 05:03:20;;;;;;;;;11.75;8.00;;;;;3.56;74.52;100331.66;5017753;28;45326;-79
2022/12/09 05:05:45;;;;;;;;;17.75;8.00;;;;;3.52;74.34;100329.97;5035084;28;46574;-79
2022/12/09 05:08:11;;;;;;;;;10.00;7.50;;;;;3.47;74.47;100335.13;5017139;28;64097;-80
2022/12/09 05:10:36;;;;;;;;;15.25;9.75;;;;;3.44;74.67;100330.88;5035540;28;45375;-79
2022/12/09 05:13:02;;;;;;;;;9.75;9.75;;;;;3.44;74.99;100327.47;5017018;28;61837;-79
2022/12/09 05:15:27;;;;;;;;;13.25;7.75;;;;;3.38;74.12;100328.34;5034135;28;47215;-79
2022/12/09 05:17:52;;;;;;;;;17.00;8.25;;;;;3.25;74.00;100322.41;5035386;28;45337;-79
2022/12/09 05:20:18;;;;;;;;;16.25;11.00;;;;;3.18;74.20;100331.03;5017633;28;45400;-79
2022/12/09 05:22:43;;;;;;;;;15.75;10.00;;;;;3.15;74.24;100333.59;5035510;28;45265;-79
2022/12/09 05:25:09;;;;;;;;;9.50;9.50;;;;;3.15;74.21;100338.75;5035883;28;48577;-79
2022/12/09 05:27:34;;;;;;;;;9.00;6.00;;;;;3.13;74.39;100335.34;5021086;28;45343;-79
2022/12/09 05:29:59;;;;;;;;;12.50;8.00;;;;;3.10;74.47;100331.06;5019674;28;49090;-77
2022/12/09 05:32:27;;;;;;;;;13.00;9.00;;;;;3.05;74.33;100335.38;5020282;28;63082;-79
2022/12/09 05:34:53;;;;;;;;;14.00;6.50;;;;;3.01;74.21;100337.94;5037459;28;45591;-78
2022/12/09 05:37:18;;;;;;;;;9.75;8.50;;;;;3.02;74.84;100334.53;5038590;28;45485;-79
2022/12/09 05:39:44;;;;;;;;;11.50;6.75;;;;;3.00;74.51;100334.53;5038689;28;45558;-79
2022/12/09 05:42:09;;;;;;;;;12.00;7.00;;;;;2.98;74.43;100337.97;5038134;28;56612;-79
2022/12/09 05:44:34;;;;;;;;;16.00;9.50;;;;;2.93;74.31;100335.41;5037897;28;65165;-79
2022/12/09 05:47:00;;;;;;;;;15.00;10.25;;;;;2.94;74.40;100333.72;5038073;28;60423;-79
2022/12/09 05:49:25;;;;;;;;;10.00;10.00;;;;;2.96;74.27;100335.41;5020278;28;45486;-78
2022/12/09 05:51:50;;;;;;;;;14.50;9.00;;;;;2.96;74.48;100342.28;5038136;28;54076;-79
2022/12/09 05:54:16;;;;;;;;;18.75;9.00;;;;;2.98;74.80;100333.69;5038253;28;47277;-79
2022/12/09 05:56:41;;;;;;;;;12.25;10.00;;;;;3.03;74.79;100344.81;5037751;28;64931;-79
2022/12/09 05:59:08;;;;;;;;;12.50;6.50;;;;;3.05;74.04;100340.50;5019679;28;58873;-79
2022/12/09 06:01:33;;;;;;;;;9.50;7.00;;;;;2.99;73.77;100342.25;5038061;28;52155;-79
2022/12/09 06:03:58;;;;;;;;;18.25;12.00;;;;;2.90;74.28;100346.56;5037233;28;65869;-79
2022/12/09 06:06:29;;;;;;;;;12.50;9.00;;;;;2.89;74.22;100354.28;5020028;28;62452;-79
2022/12/09 06:08:56;;;;;;;;;16.50;9.00;;;;;2.87;74.57;100356.00;5038450;28;45406;-79
2022/12/09 06:11:22;;;;;;;;;13.00;9.25;;;;;2.91;74.80;100361.13;5020405;28;45603;-79
2022/12/09 06:13:48;;;;;;;;;15.50;9.00;;;;;2.93;74.34;100362.84;5020243;28;47175;-79
2022/12/09 06:16:17;;;;;;;;;16.00;10.00;;;;;2.94;74.11;100365.41;5020464;28;45557;-80
2022/12/09 06:18:43;;;;;;;;;17.00;10.00;;;;;2.98;74.11;100371.41;5020574;28;45370;-80
2022/12/09 06:21:10;;;;;;;;;14.75;11.00;;;;;3.00;73.92;100372.25;5038126;28;45492;-80
2022/12/09 06:23:37;;;;;;;;;15.50;10.00;;;;;2.97;73.51;100372.25;5036227;28;47603;-80
2022/12/09 06:26:03;;;;;;;;;13.75;9.25;;;;;2.88;73.39;100371.44;5038128;28;45475;-81
2022/12/09 06:28:28;;;;;;;;;17.00;10.00;;;;;2.79;73.48;100379.19;5020178;28;45440;-80
2022/12/09 06:30:54;;;;;;;;;18.75;9.75;;;;;2.75;73.48;100376.59;5037444;28;55092;-80
2022/12/09 06:33:19;;;;;;;;;14.50;11.00;;;;;2.70;73.54;100385.19;5019587;28;46089;-80
2022/12/09 06:35:44;;;;;;;;;15.25;10.00;;;;;2.65;73.49;100384.34;5037639;28;51172;-80
2022/12/09 06:38:10;;;;;;;;;7.25;6.25;;;;;2.62;73.32;100379.22;5018971;28;56480;-80
2022/12/09 06:40:40;;;;;;;;;9.50;6.25;;;;;2.55;73.56;100374.94;5037707;28;45562;-81
2022/12/09 06:43:06;;;;;;;;;14.50;3.25;;;;;2.51;73.37;100368.13;5002862;28;47074;-81
2022/12/09 06:45:31;;;;;;;;;8.00;3.25;;;;;2.49;73.57;100368.13;5037760;28;45202;-81
2022/12/09 06:47:56;;;;;;;;;11.50;9.00;;;;;2.45;73.24;100366.41;5036593;28;63034;-80
2022/12/09 06:50:22;;;;;;;;;20.50;11.50;;;;;2.43;73.46;100367.25;5037791;28;45285;-80
2022/12/09 06:52:47;;;;;;;;;11.00;10.50;;;;;2.46;73.94;100373.25;5037418;28;45405;-79
2022/12/09 06:55:12;;;;;;;;;10.75;6.75;;;;;2.54;73.84;100364.66;5019045;28;59490;-80
2022/12/09 06:57:38;;;;;;;;;10.50;9.00;;;;;2.56;73.96;100371.50;5037824;28;45358;-81
2022/12/09 07:00:04;;;;;;;;;9.75;8.00;;;;;2.55;73.45;100372.38;5037010;28;59734;-81
2022/12/09 07:02:32;;;;;;;;;11.75;7.00;;;;;2.52;73.40;100373.22;5019019;28;48513;-81
2022/12/09 07:04:57;;;;;;;;;13.00;8.00;;;;;2.48;73.58;100371.53;5037492;28;45429;-80
2022/12/09 07:07:22;;;;;;;;;18.00;11.00;;;;;2.48;73.58;100373.25;5019752;28;45327;-80
2022/12/09 07:09:48;;;;;;;;;11.50;8.50;;;;;2.48;73.35;100373.25;5018764;28;63734;-81
2022/12/09 07:12:13;;;;;;;;;15.00;9.25;;;;;2.50;73.64;100369.81;5002372;28;58886;-81
2022/12/09 07:14:39;;;;;;;;;19.50;14.00;;;;;2.47;73.71;100376.66;5018720;28;60984;-81
2022/12/09 07:17:14;;;;;;;;;12.75;9.75;;;;;2.45;73.83;100379.25;5002618;28;45386;-82
2022/12/09 07:19:39;;;;;;;;;14.25;7.75;;;;;2.47;73.42;100380.09;5037323;28;45389;-81
2022/12/09 07:22:05;;;;;;;;;17.50;13.75;;;;;2.46;73.65;100372.41;5036509;28;64687;-82
2022/12/09 07:24:30;;;;;;;;;18.75;9.75;;;;;2.46;73.90;100377.53;5036401;28;62331;-81
2022/12/09 07:26:55;;;;;;;;;18.00;11.00;;;;;2.44;73.27;100380.09;5037244;28;45688;-82
2022/12/09 07:29:21;;;;;;;;;9.50;7.00;;;;;2.45;73.52;100381.81;5036541;28;55179;-82
2022/12/09 07:31:46;;;;;;;;;16.50;12.00;;;;;2.47;73.66;100379.22;5035725;28;68609;-82
2022/12/09 07:34:12;;;;;;;;;16.50;13.00;;;;;2.49;74.02;100378.38;5019067;28;45360;-82
2022/12/09 07:36:37;;;;;;;;;14.00;10.00;;;;;2.56;73.74;100378.38;5036358;28;56874;-81
2022/12/09 07:39:05;;;;;;;;;15.00;13.50;;;;;2.57;73.54;100391.22;5036918;28;45398;-81
2022/12/09 07:41:31;;;;;;;;;12.00;10.00;;;;;2.61;73.46;100395.50;5036713;28;46281;-81
2022/12/09 07:43:56;;;;;;;;;13.75;10.50;;;;;2.66;73.82;100390.34;5036569;28;45431;-81
2022/12/09 07:46:22;;;;;;;;;13.50;7.00;;;;;2.71;74.07;100398.88;5036533;28;45647;-81
2022/12/09 07:48:48;;;;;;;;;20.00;11.00;;;;;2.70;73.22;100398.03;5035482;28;45560;-81
2022/12/09 07:51:14;;;;;;;;;17.75;12.75;;;;;2.65;73.35;100394.63;5036422;28;45369;-82
2022/12/09 07:53:40;;;;;;;;;14.00;10.25;;;;;2.64;73.26;100399.78;5036530;28;45983;-81
2022/12/09 07:56:13;;;;;;;;;16.50;12.00;;;;;2.62;73.07;100404.94;5018913;28;45338;-81
2022/12/09 07:58:39;;;;;;;;;15.00;11.00;;;;;2.62;72.51;100404.03;5036485;28;45455;-82
2022/12/09 08:01:06;;;;;;;;;10.50;9.25;;;;;2.54;73.12;100404.06;5018792;28;45456;-82
2022/12/09 08:03:32;;;;;;;;;13.25;9.00;;;;;2.54;73.09;100413.50;5018587;28;45273;-81
2022/12/09 08:05:57;;;;;;;;;16.50;11.00;;;;;2.52;72.85;100410.91;5018845;28;45299;-81
2022/12/09 08:08:22;;;;;;;;;12.50;10.00;;;;;2.53;73.39;100404.94;5035980;28;59286;-80
2022/12/09 08:10:48;;;;;;;;;17.00;9.75;;;;;2.52;73.20;100411.75;5036193;28;47143;-79
2022/12/09 08:13:13;;;;;;;;;15.00;11.00;;;;;2.56;73.39;100406.63;5036004;28;45235;-80
2022/12/09 08:15:39;;;;;;;;;21.75;13.00;;;;;2.63;73.45;100401.47;5036121;28;50304;-80
2022/12/09 08:18:04;;;;;;;;;18.25;12.00;;;;;2.69;73.46;100408.31;5018451;28;49173;-80
2022/12/09 08:20:30;;;;;;;;;16.25;12.75;;;;;2.74;72.94;100410.91;5034976;28;48414;-80
2022/12/09 08:22:55;;;;;;;;;22.75;13.00;;;;;2.75;73.31;100404.88;5036127;28;45343;-80
2022/12/09 08:25:21;;;;;;;;;23.50;13.50;;;;;2.78;73.16;100402.31;5025432;28;45823;-80
2022/12/09 08:27:46;;;;;;;;;21.75;13.50;;;;;2.79;73.27;100410.03;5023297;28;45408;-80
2022/12/09 08:30:12;;;;;;;;;14.25;9.00;;;;;2.79;72.71;100407.47;5011668;28;64622;-80
2022/12/09 08:32:37;;;;;;;;;14.25;9.00;;;;;2.79;72.56;100409.19;5032597;28;45426;-80
2022/12/09 08:35:03;;;;;;;;;11.25;8.50;;;;;2.79;72.62;100399.75;5034404;28;48176;-80
2022/12/09 08:37:28;;;;;;;;;18.25;10.00;;;;;2.79;72.50;100401.47;5032584;28;45500;-80
2022/12/09 08:39:53;;;;;;;;;11.00;11.00;;;;;2.82;73.00;100407.47;5031812;28;64267;-78
2022/12/09 08:42:19;;;;;;;;;11.75;9.00;;;;;2.84;72.76;100402.28;5017984;28;45482;-80
2022/12/09 08:44:44;;;;;;;;;21.00;15.00;;;;;2.89;72.59;100406.56;5015798;28;61835;-80
2022/12/09 08:47:09;;;;;;;;;19.75;14.50;;;;;2.91;72.48;100403.97;5034347;28;45369;-80
2022/12/09 08:49:35;;;;;;;;;19.00;12.25;;;;;2.93;72.44;100409.13;5032726;28;48468;-80
2022/12/09 08:52:00;;;;;;;;;22.50;13.00;;;;;2.93;72.51;100407.41;5033016;28;63162;-80
2022/12/09 08:54:26;;;;;;;;;18.25;13.00;;;;;2.94;72.49;100410.84;5015932;28;45500;-82
2022/12/09 08:56:56;;;;;;;;;25.50;19.75;;;;;2.96;72.54;100417.69;5033789;28;45440;-82
2022/12/09 08:59:22;;;;;;;;;21.00;17.00;;;;;2.94;72.97;100413.44;5032873;28;45568;-82
2022/12/09 09:01:48;;;;;;;;;28.75;18.00;;;;;2.94;72.68;100416.00;5015870;28;45874;-82
2022/12/09 09:04:17;;;;;;;;;34.00;23.25;;;;;2.94;72.76;100418.56;5014940;28;45580;-80
2022/12/09 09:06:45;;;;;;;;;30.50;18.50;;;;;2.99;72.42;100420.25;5014988;28;45586;-81
2022/12/09 09:09:12;;;;;;;;;27.50;23.00;;;;;2.99;72.30;100419.38;4997382;28;48330;-79
2022/12/09 09:11:38;;;;;;;;;35.00;24.00;;;;;2.97;72.38;100408.25;5032519;28;45912;-79
2022/12/09 09:14:05;;;;;;;;;19.00;13.00;;;;;2.98;72.60;100422.84;5033425;28;45447;-80
2022/12/09 09:16:30;;;;;;;;;21.75;13.50;;;;;2.92;72.34;100421.13;5032990;28;45545;-81
2022/12/09 09:18:55;;;;;;;;;17.50;12.50;;;;;2.90;72.18;100422.84;5033082;28;50160;-80
2022/12/09 09:21:23;;;;;;;;;32.00;17.50;;;;;2.89;72.63;100411.69;5014371;28;64429;-80
2022/12/09 09:23:51;;;;;;;;;27.25;19.50;;;;;2.87;72.42;100415.16;5015021;28;45383;-81
2022/12/09 09:26:22;;;;;;;;;22.00;15.00;;;;;2.86;72.29;100416.00;5032742;28;45406;-80
2022/12/09 09:28:48;;;;;;;;;29.00;16.50;;;;;2.86;72.71;100410.84;5032897;28;46384;-81
2022/12/09 09:31:17;;;;;;;;;23.00;18.75;;;;;2.82;72.51;100411.72;4997868;28;49438;-82
2022/12/09 09:33:43;;;;;;;;;22.50;15.00;;;;;2.78;72.43;100412.59;5033162;28;45500;-80
2022/12/09 09:36:13;;;;;;;;;14.75;12.75;;;;;2.88;72.85;100417.72;5014943;28;45628;-79
2022/12/09 09:38:38;;;;;;;;;25.00;18.50;;;;;3.03;72.50;100421.97;5015115;28;46427;-80
2022/12/09 09:41:18;;;;;;;;;18.75;12.25;;;;;3.17;72.50;100418.47;5014252;28;45548;-80
2022/12/09 09:43:43;;;;;;;;;18.75;13.00;;;;;3.24;71.94;100420.16;5010305;28;45513;-80
2022/12/09 09:46:16;;;;;;;;;14.50;10.50;;;;;3.25;72.16;100427.00;5008148;28;64416;-80
2022/12/09 09:48:42;;;;;;;;;8.25;2.75;;;;;3.24;71.49;100422.75;5008356;28;46548;-80
2022/12/09 09:51:12;;;;;;;;;15.00;9.00;;;;;3.30;71.36;100420.97;5015885;28;45553;-80
2022/12/09 09:53:38;;;;;;;;;13.50;13.50;;;;;3.38;71.69;100425.25;5016915;28;45602;-81
2022/12/09 09:56:04;;;;;;;;;27.75;18.75;;;;;3.47;71.56;100431.22;5032555;28;45319;-80
2022/12/09 09:58:38;;;;;;;;;17.25;9.25;;;;;3.55;71.15;100428.63;5033866;28;47281;-80
2022/12/09 10:01:15;;;;;;;;;16.00;12.75;;;;;3.56;71.33;100427.72;5033981;28;46017;-80
2022/12/09 10:03:59;;;;;;;;;18.00;14.00;;;;;3.63;71.24;100424.25;5016581;28;45353;-80
2022/12/09 10:06:48;;;;;;;;;15.50;12.00;;;;;3.78;70.67;100428.47;5016099;28;45499;-80
2022/12/09 10:09:37;;;;;;;;;27.00;17.00;;;;;3.88;70.49;100418.97;5014465;28;45502;-80
2022/12/09 10:12:12;;;;;;;;;27.75;23.75;;;;;3.96;70.35;100414.63;5017125;28;45825;-80
2022/12/09 10:14:46;;;;;;;;;26.75;19.25;;;;;4.00;70.49;100406.00;5038045;28;45260;-80
2022/12/09 10:17:34;;;;;;;;;23.00;13.75;;;;;4.06;70.40;100403.38;5038128;28;45385;-80
2022/12/09 10:20:19;;;;;;;;;19.25;15.50;;;;;4.13;70.12;100399.06;5019843;28;46660;-80
2022/12/09 10:22:47;;;;;;;;;33.75;27.25;;;;;4.24;70.27;100396.41;5020130;28;45418;-80
2022/12/09 10:25:36;;;;;;;;;31.75;23.50;;;;;4.37;70.31;100395.41;5000459;28;45434;-80
2022/12/09 10:28:22;;;;;;;;;36.00;28.75;;;;;4.40;69.40;100400.56;5016766;28;45508;-80
2022/12/09 10:30:54;;;;;;;;;29.50;19.50;;;;;4.32;69.48;100393.75;4999766;28;47206;-79
2022/12/09 10:33:27;;;;;;;;;36.00;27.50;;;;;4.31;69.51;100390.31;5017309;28;45469;-79
2022/12/09 10:35:52;;;;;;;;;22.50;17.75;;;;;4.35;69.74;100401.47;4983513;28;45296;-79
2022/12/09 10:38:18;;;;;;;;;9.25;9.25;;;;;4.35;69.57;100391.16;5029303;28;45556;-79
2022/12/09 10:40:44;;;;;;;;;41.25;30.50;;;;;4.36;69.42;100392.84;5019489;28;45408;-80
2022/12/09 10:43:45;;;;;;;;;37.00;24.00;;;;;4.29;69.38;100386.03;5037067;28;45402;-80
2022/12/09 10:46:22;;;;;;;;;39.25;34.75;;;;;4.35;69.36;100375.69;5037471;28;45560;-80
2022/12/09 10:48:47;;;;;;;;;30.75;23.25;;;;;4.36;69.20;100374.81;5019604;28;45532;-79
2022/12/09 10:51:27;;;;;;;;;33.00;23.33;;;;;4.36;69.38;100377.38;5019101;28;46549;-80
2022/12/09 10:54:08;;;;;;;;;28.50;22.00;;;;;4.34;68.94;100379.97;5018849;28;45258;-80
2022/12/09 10:56:36;;;;;;;;;33.00;26.75;;;;;4.27;69.16;100378.31;5037271;28;45504;-79
2022/12/09 10:59:21;;;;;;;;;29.75;26.25;;;;;4.17;68.81;100369.81;5037041;28;45247;-79
2022/12/09 11:01:57;;;;;;;;;34.25;22.25;;;;;4.14;69.01;100372.44;5018981;28;46638;-79
2022/12/09 11:04:28;;;;;;;;;24.00;20.00;;;;;4.11;69.13;100369.03;5019449;28;45390;-79
2022/12/09 11:06:57;;;;;;;;;19.00;14.75;;;;;4.17;69.26;100368.97;5019476;28;45484;-80
2022/12/09 11:09:29;;;;;;;;;32.00;28.00;;;;;4.15;69.14;100363.81;5018980;28;45278;-79
2022/12/09 11:11:54;;;;;;;;;30.75;19.00;;;;;4.15;69.25;100361.25;5036801;28;46301;-79
2022/12/09 11:14:34;;;;;;;;;32.50;20.25;;;;;4.21;68.74;100363.75;5018375;28;65535;-79
2022/12/09 11:17:14;;;;;;;;;23.00;16.00;;;;;4.38;68.71;100357.59;5019130;28;45486;-82
2022/12/09 11:19:39;;;;;;;;;21.25;16.25;;;;;5.13;69.63;100354.19;5019117;28;45445;-80
2022/12/09 11:22:41;;;;;;;;;27.75;20.50;;;;;6.67;68.75;100349.22;5018486;28;48943;-79
2022/12/09 11:25:10;;;;;;;;;24.25;20.00;;;;;8.30;66.63;100350.78;5019726;28;45892;-79